createdAt,value
2023-04-25T00:00:07.953Z,95069.25
2023-04-25T00:02:40.317Z,95065.00
2023-04-25T00:05:10.698Z,95062.88
2023-04-25T00:07:38.889Z,95063.16
2023-04-25T00:10:08.922Z,95065.00
2023-04-25T00:12:36.971Z,95057.56
2023-04-25T00:15:05.465Z,95057.28
2023-04-25T00:17:33.584Z,95054.63
2023-04-25T00:20:01.939Z,95055.44
2023-04-25T00:22:31.943Z,95053.84
2023-04-25T00:25:01.354Z,95058.88
2023-04-25T00:27:29.460Z,95064.22
2023-04-25T00:29:57.851Z,95063.97
2023-04-25T00:32:26.084Z,95057.56
2023-04-25T00:34:54.202Z,95054.09
2023-04-25T00:37:22.539Z,95052.25
2023-04-25T00:39:52.015Z,95048.53
2023-04-25T00:42:20.087Z,95054.94
2023-04-25T00:44:49.134Z,95047.22
2023-04-25T00:47:17.265Z,95041.63
2023-04-25T00:49:45.819Z,95037.91
2023-04-25T00:52:14.330Z,95037.91
2023-04-25T00:54:42.426Z,95040.84
2023-04-25T00:57:11.921Z,95041.91
2023-04-25T00:59:39.952Z,95033.91
2023-04-25T01:02:08.348Z,95041.63
2023-04-25T01:04:36.708Z,95035.00
2023-04-25T01:07:04.908Z,95042.69
2023-04-25T01:09:33.116Z,95045.63
2023-04-25T01:12:02.150Z,95046.44
2023-04-25T01:14:31.715Z,95041.38
2023-04-25T01:17:00.181Z,95044.84
2023-04-25T01:19:28.427Z,95037.09
2023-04-25T01:21:57.907Z,95034.19
2023-04-25T01:24:26.905Z,95037.91
2023-04-25T01:26:57.266Z,95038.97
2023-04-25T01:29:26.467Z,95034.19
2023-04-25T01:31:55.311Z,95027.81
2023-04-25T01:34:23.521Z,95031.53
2023-04-25T01:36:51.838Z,95033.91
2023-04-25T01:39:21.355Z,95036.28
2023-04-25T01:41:49.877Z,95033.38
2023-04-25T01:44:18.432Z,95030.19
2023-04-25T01:46:46.630Z,95035.75
2023-04-25T01:49:14.708Z,95036.28
2023-04-25T01:51:45.060Z,95042.16
2023-04-25T01:54:13.448Z,95037.38
2023-04-25T01:56:42.896Z,95032.06
2023-04-25T01:59:13.026Z,95039.50
2023-04-25T02:01:59.636Z,95033.38
2023-04-25T02:04:32.697Z,95030.72
2023-04-25T02:07:01.257Z,95035.78
2023-04-25T02:09:38.367Z,95033.41
2023-04-25T02:12:11.836Z,95030.19
2023-04-25T02:15:07.283Z,95024.59
2023-04-25T02:17:40.654Z,95019.28
2023-04-25T02:20:09.449Z,95025.16
2023-04-25T02:22:37.767Z,95021.94
2023-04-25T02:25:09.128Z,95024.59
2023-04-25T02:27:39.315Z,95027.25
2023-04-25T02:30:10.165Z,95030.19
2023-04-25T02:32:38.661Z,95032.06
2023-04-25T02:35:07.664Z,95024.06
2023-04-25T02:37:36.229Z,95020.59
2023-04-25T02:40:05.166Z,95015.81
2023-04-25T02:42:33.578Z,95020.59
2023-04-25T02:45:03.335Z,95008.66
2023-04-25T02:47:31.770Z,95004.41
2023-04-25T02:49:59.921Z,95005.47
2023-04-25T02:52:28.834Z,94997.75
2023-04-25T02:55:05.058Z,95005.75
2023-04-25T02:57:34.675Z,94999.34
2023-04-25T03:00:06.541Z,94997.22
2023-04-25T03:02:34.742Z,94992.44
2023-04-25T03:05:04.267Z,94992.44
2023-04-25T03:07:33.246Z,94993.75
2023-04-25T03:10:01.351Z,94986.84
2023-04-25T03:12:31.907Z,94995.09
2023-04-25T03:15:00.117Z,94984.44
2023-04-25T03:17:29.740Z,94983.91
2023-04-25T03:19:59.689Z,94983.13
2023-04-25T03:22:27.784Z,94988.44
2023-04-25T03:24:55.900Z,94979.66
2023-04-25T03:27:24.023Z,94979.69
2023-04-25T03:29:53.164Z,94983.91
2023-04-25T03:32:21.931Z,94979.94
2023-04-25T03:34:53.035Z,94986.03
2023-04-25T03:37:21.176Z,94987.09
2023-04-25T03:39:49.216Z,94979.94
2023-04-25T03:42:17.934Z,94974.91
2023-04-25T03:44:46.838Z,94974.91
2023-04-25T03:47:16.142Z,94979.41
2023-04-25T03:49:44.264Z,94978.63
2023-04-25T03:52:13.797Z,94982.59
2023-04-25T03:54:42.697Z,94983.13
2023-04-25T03:57:17.448Z,94981.53
2023-04-25T03:59:46.190Z,94980.22
2023-04-25T04:02:16.197Z,94983.94
2023-04-25T04:04:45.777Z,94978.34
2023-04-25T04:07:15.982Z,94987.38
2023-04-25T04:09:47.612Z,94975.94
2023-04-25T04:12:21.889Z,94983.91
2023-04-25T04:14:50.355Z,94983.91
2023-04-25T04:17:18.573Z,94984.72
2023-04-25T04:19:46.899Z,94981.81
2023-04-25T04:22:21.875Z,94975.94
2023-04-25T04:24:51.026Z,94984.19
2023-04-25T04:27:25.084Z,94986.06
2023-04-25T04:30:09.417Z,94986.31
2023-04-25T04:32:53.705Z,94985.25
2023-04-25T04:35:22.974Z,94995.34
2023-04-25T04:37:52.464Z,94984.72
2023-04-25T04:40:22.860Z,94999.63
2023-04-25T04:42:57.513Z,94991.38
2023-04-25T04:45:41.481Z,94987.09
2023-04-25T04:48:29.219Z,94990.56
2023-04-25T04:51:15.819Z,94989.50
2023-04-25T04:53:59.458Z,94992.44
2023-04-25T04:56:53.488Z,94981.53
2023-04-25T04:59:48.175Z,94983.94
2023-04-25T05:02:40.183Z,94978.09
2023-04-25T05:05:28.713Z,94983.13
2023-04-25T05:08:15.449Z,94990.56
2023-04-25T05:10:57.295Z,95000.41
2023-04-25T05:13:36.723Z,94990.56
2023-04-25T05:16:21.238Z,94996.94
2023-04-25T05:18:54.804Z,94996.69
2023-04-25T05:21:44.180Z,95004.38
2023-04-25T05:24:26.274Z,95006.25
2023-04-25T05:27:14.512Z,95017.94
2023-04-25T05:30:01.396Z,95021.91
2023-04-25T05:32:49.477Z,95027.22
2023-04-25T05:35:18.345Z,95039.41
2023-04-25T05:37:49.514Z,95031.66
2023-04-25T05:40:17.926Z,95034.06
2023-04-25T05:42:47.350Z,95034.56
2023-04-25T05:45:34.006Z,95036.72
2023-04-25T05:48:37.894Z,95040.19
2023-04-25T05:51:19.805Z,95042.28
2023-04-25T05:54:06.584Z,95056.34
2023-04-25T05:56:35.951Z,95059.75
2023-04-25T05:59:05.516Z,95057.56
2023-04-25T06:01:34.016Z,95057.75
2023-04-25T06:04:03.007Z,95065.41
2023-04-25T06:06:31.555Z,95066.41
2023-04-25T06:09:01.464Z,95068.81
2023-04-25T06:11:29.542Z,95072.22
2023-04-25T06:13:58.026Z,95075.38
2023-04-25T06:16:28.114Z,95074.03
2023-04-25T06:18:56.209Z,95066.59
2023-04-25T06:21:24.430Z,95072.69
2023-04-25T06:23:53.568Z,95064.50
2023-04-25T06:26:25.549Z,95063.19
2023-04-25T06:28:54.147Z,95067.75
2023-04-25T06:31:22.380Z,95059.81
2023-04-25T06:33:55.863Z,95065.16
2023-04-25T06:36:28.717Z,95069.13
2023-04-25T06:39:03.315Z,95067.34
2023-04-25T06:41:31.787Z,95067.88
2023-04-25T06:44:03.364Z,95071.16
2023-04-25T06:46:35.339Z,95068.81
2023-04-25T06:49:04.960Z,95070.69
2023-04-25T06:51:33.087Z,95067.00
2023-04-25T06:54:01.522Z,95082.16
2023-04-25T06:56:36.411Z,95068.88
2023-04-25T06:59:10.143Z,95075.00
2023-04-25T07:01:40.175Z,95062.28
2023-04-25T07:04:15.406Z,95064.19
2023-04-25T07:06:50.417Z,95077.19
2023-04-25T07:09:22.926Z,95060.22
2023-04-25T07:11:52.214Z,95067.41
2023-04-25T07:14:20.237Z,95064.50
2023-04-25T07:16:48.395Z,95063.97
2023-04-25T07:19:18.304Z,95063.69
2023-04-25T07:21:47.205Z,95063.94
2023-04-25T07:24:15.291Z,95066.25
2023-04-25T07:26:47.534Z,95065.75
2023-04-25T07:29:44.756Z,95060.34
2023-04-25T07:32:14.587Z,95070.94
2023-04-25T07:34:45.981Z,95069.00
2023-04-25T07:37:15.098Z,95075.00
2023-04-25T07:39:57.958Z,95071.13
2023-04-25T07:42:26.141Z,95075.28
2023-04-25T07:44:54.293Z,95073.84
2023-04-25T07:47:22.531Z,95076.47
2023-04-25T07:49:53.395Z,95075.38
2023-04-25T07:52:22.650Z,95073.34
2023-04-25T07:54:55.997Z,95080.25
2023-04-25T07:57:31.845Z,95079.06
2023-04-25T08:00:00.143Z,95078.59
2023-04-25T08:02:30.696Z,95080.41
2023-04-25T08:05:00.735Z,95083.78
2023-04-25T08:07:29.142Z,95084.31
2023-04-25T08:10:02.214Z,95085.19
2023-04-25T08:12:34.816Z,95093.53
2023-04-25T08:15:03.582Z,95101.53
2023-04-25T08:17:36.332Z,95099.75
2023-04-25T08:20:07.441Z,95105.91
2023-04-25T08:22:36.583Z,95099.47
2023-04-25T08:25:33.861Z,95115.19
2023-04-25T08:28:03.902Z,95112.56
2023-04-25T08:30:33.129Z,95117.03
2023-04-25T08:33:01.629Z,95110.81
2023-04-25T08:36:00.518Z,95120.19
2023-04-25T08:38:29.563Z,95127.41
2023-04-25T08:40:57.803Z,95120.50
2023-04-25T08:43:26.734Z,95132.50
2023-04-25T08:45:55.206Z,95139.97
2023-04-25T08:48:37.916Z,95137.78
2023-04-25T08:53:38.612Z,95135.84
2023-04-25T08:56:07.706Z,95139.28
2023-04-25T08:58:38.001Z,95145.09
2023-04-25T09:01:06.355Z,95150.94
2023-04-25T09:03:42.449Z,95156.78
2023-04-25T09:06:12.657Z,95159.75
2023-04-25T09:08:41.613Z,95163.00
2023-04-25T09:11:10.599Z,95167.38
2023-04-25T09:13:38.783Z,95176.72
2023-04-25T09:16:28.706Z,95170.88
2023-04-25T09:19:38.133Z,95179.41
2023-04-25T09:22:09.844Z,95177.50
2023-04-25T09:24:39.739Z,95179.66
2023-04-25T09:27:08.928Z,95184.19
2023-04-25T09:29:38.773Z,95184.44
2023-04-25T09:32:14.062Z,95191.09
2023-04-25T09:34:43.167Z,95189.25
2023-04-25T09:37:13.038Z,95193.75
2023-04-25T09:40:04.007Z,95202.59
2023-04-25T09:42:35.594Z,95205.81
2023-04-25T09:45:03.996Z,95205.25
2023-04-25T09:47:39.028Z,95210.84
2023-04-25T09:50:16.103Z,95202.06
2023-04-25T09:52:48.354Z,95203.66
2023-04-25T09:55:24.022Z,95207.66
2023-04-25T09:57:52.302Z,95210.09
2023-04-25T10:00:22.364Z,95207.94
2023-04-25T10:02:50.490Z,95211.94
2023-04-25T10:05:38.804Z,95213.56
2023-04-25T10:08:09.757Z,95211.94
2023-04-25T10:10:39.539Z,95215.41
2023-04-25T10:13:08.660Z,95216.75
2023-04-25T10:15:39.866Z,95221.50
2023-04-25T10:18:08.899Z,95226.84
2023-04-25T10:20:37.498Z,95224.72
2023-04-25T10:23:09.072Z,95226.06
2023-04-25T10:25:37.156Z,95231.66
2023-04-25T10:28:06.214Z,95228.19
2023-04-25T10:30:34.516Z,95229.50
2023-04-25T10:33:03.227Z,95238.84
2023-04-25T10:35:32.675Z,95234.53
2023-04-25T10:38:05.804Z,95243.06
2023-04-25T10:40:35.512Z,95243.31
2023-04-25T10:43:43.350Z,95244.38
2023-04-25T10:46:21.162Z,95245.16
2023-04-25T10:48:51.052Z,95242.22
2023-04-25T10:51:23.079Z,95248.91
2023-04-25T10:54:01.454Z,95234.28
2023-04-25T10:56:32.164Z,95243.88
2023-04-25T10:59:11.199Z,95241.25
2023-04-25T11:01:43.258Z,95243.91
2023-04-25T11:04:24.342Z,95243.91
2023-04-25T11:07:12.652Z,95246.81
2023-04-25T11:09:41.480Z,95244.94
2023-04-25T11:12:12.750Z,95240.66
2023-04-25T11:14:41.792Z,95246.84
2023-04-25T11:17:10.169Z,95256.72
2023-04-25T11:19:38.375Z,95251.63
2023-04-25T11:22:07.832Z,95255.91
2023-04-25T11:24:36.537Z,95260.44
2023-04-25T11:27:05.067Z,95263.91
2023-04-25T11:29:36.047Z,95267.06
2023-04-25T11:32:04.353Z,95258.28
2023-04-25T11:34:33.798Z,95265.22
2023-04-25T11:37:02.853Z,95265.75
2023-04-25T11:39:31.288Z,95267.06
2023-04-25T11:42:01.198Z,95266.28
2023-04-25T11:44:29.808Z,95268.41
2023-04-25T11:46:59.304Z,95267.34
2023-04-25T11:49:27.426Z,95269.22
2023-04-25T11:51:55.945Z,95273.75
2023-04-25T11:54:24.300Z,95276.94
2023-04-25T11:56:52.931Z,95285.72
2023-04-25T11:59:20.978Z,95275.88
2023-04-25T12:01:50.834Z,95278.00
2023-04-25T12:04:21.560Z,95287.59
2023-04-25T12:06:50.839Z,95276.94
2023-04-25T12:09:20.225Z,95286.53
2023-04-25T12:11:48.950Z,95294.28
2023-04-25T12:14:23.082Z,95286.00
2023-04-25T12:16:52.295Z,95290.28
2023-04-25T12:19:22.286Z,95288.16
2023-04-25T12:21:58.046Z,95290.53
2023-04-25T12:24:28.970Z,95293.50
2023-04-25T12:27:01.952Z,95292.13
2023-04-25T12:29:34.795Z,95299.56
2023-04-25T12:32:10.490Z,95289.94
2023-04-25T12:34:40.188Z,95292.63
2023-04-25T12:37:08.667Z,95295.88
2023-04-25T12:39:36.800Z,95304.94
2023-04-25T12:42:07.763Z,95302.50
2023-04-25T12:44:37.589Z,95316.66
2023-04-25T12:47:06.485Z,95311.59
2023-04-25T12:49:35.306Z,95309.72
2023-04-25T12:52:04.873Z,95317.97
2023-04-25T12:54:33.141Z,95318.28
2023-04-25T12:57:03.902Z,95319.06
2023-04-25T12:59:32.313Z,95321.72
2023-04-25T13:02:00.463Z,95325.97
2023-04-25T13:04:29.439Z,95326.75
2023-04-25T13:06:57.610Z,95320.38
2023-04-25T13:09:27.123Z,95320.66
2023-04-25T13:11:57.240Z,95314.53
2023-04-25T13:14:27.308Z,95318.47
2023-04-25T13:16:56.118Z,95325.34
2023-04-25T13:19:24.247Z,95323.09
2023-04-25T13:21:52.452Z,95329.50
2023-04-25T13:24:20.521Z,95319.13
2023-04-25T13:26:50.227Z,95317.53
2023-04-25T13:29:18.266Z,95319.44
2023-04-25T13:31:46.872Z,95320.28
2023-04-25T13:34:14.953Z,95333.69
2023-04-25T13:36:43.095Z,95332.66
2023-04-25T13:39:13.268Z,95337.44
2023-04-25T13:41:41.480Z,95332.13
2023-04-25T13:44:11.499Z,95327.06
2023-04-25T13:46:46.974Z,95340.41
2023-04-25T13:49:16.551Z,95338.00
2023-04-25T13:51:44.770Z,95344.66
2023-04-25T13:54:12.904Z,95342.25
2023-04-25T13:56:43.134Z,95342.00
2023-04-25T13:59:13.601Z,95339.31
2023-04-25T14:01:41.926Z,95344.63
2023-04-25T14:04:10.041Z,95341.88
2023-04-25T14:06:38.599Z,95337.84
2023-04-25T14:09:07.967Z,95334.56
2023-04-25T14:11:36.238Z,95342.81
2023-04-25T14:14:05.091Z,95340.03
2023-04-25T14:16:34.775Z,95335.50
2023-04-25T14:19:03.024Z,95332.09
2023-04-25T14:21:32.747Z,95333.44
2023-04-25T14:24:00.898Z,95342.81
2023-04-25T14:26:28.975Z,95343.06
2023-04-25T14:28:57.528Z,95345.47
2023-04-25T14:31:25.666Z,95342.00
2023-04-25T14:33:57.692Z,95339.50
2023-04-25T14:36:28.417Z,95341.06
2023-04-25T14:38:56.520Z,95339.63
2023-04-25T14:41:25.188Z,95342.28
2023-04-25T14:43:53.908Z,95348.69
2023-04-25T14:46:23.224Z,95356.16
2023-04-25T14:48:51.445Z,95351.75
2023-04-25T14:51:21.197Z,95357.19
2023-04-25T14:53:49.941Z,95358.56
2023-04-25T14:56:18.246Z,95368.47
2023-04-25T14:58:46.490Z,95380.59
2023-04-25T15:01:15.098Z,95384.34
2023-04-25T15:03:43.797Z,95379.84
2023-04-25T15:06:12.134Z,95384.13
2023-04-25T15:08:41.987Z,95387.84
2023-04-25T15:11:10.066Z,95399.00
2023-04-25T15:13:38.081Z,95401.66
2023-04-25T15:16:07.143Z,95396.31
2023-04-25T15:18:35.257Z,95403.81
2023-04-25T15:21:03.428Z,95403.78
2023-04-25T15:23:31.530Z,95408.09
2023-04-25T15:26:00.986Z,95417.69
2023-04-25T15:28:29.127Z,95415.56
2023-04-25T15:30:57.257Z,95419.59
2023-04-25T15:33:25.328Z,95414.53
2023-04-25T15:35:53.671Z,95409.72
2023-04-25T15:38:21.864Z,95412.09
2023-04-25T15:40:50.056Z,95415.03
2023-04-25T15:43:19.668Z,95413.94
2023-04-25T15:45:47.709Z,95414.19
2023-04-25T15:48:16.386Z,95422.19
2023-04-25T15:50:44.464Z,95414.19
2023-04-25T15:53:12.581Z,95421.38
2023-04-25T15:55:40.849Z,95421.09
2023-04-25T15:58:11.380Z,95424.00
2023-04-25T16:00:42.784Z,95420.03
2023-04-25T16:03:11.572Z,95416.31
2023-04-25T16:05:39.749Z,95420.28
2023-04-25T16:08:08.270Z,95424.25
2023-04-25T16:10:36.679Z,95425.84
2023-04-25T16:13:04.742Z,95430.91
2023-04-25T16:15:35.324Z,95432.19
2023-04-25T16:18:05.592Z,95429.53
2023-04-25T16:20:34.050Z,95435.59
2023-04-25T16:23:02.145Z,95440.59
2023-04-25T16:25:30.208Z,95437.19
2023-04-25T16:27:58.751Z,95440.91
2023-04-25T16:30:27.052Z,95439.84
2023-04-25T16:32:57.484Z,95441.41
2023-04-25T16:35:30.499Z,95436.63
2023-04-25T16:37:58.566Z,95443.25
2023-04-25T16:40:26.713Z,95442.72
2023-04-25T16:42:55.115Z,95448.03
2023-04-25T16:45:24.374Z,95446.41
2023-04-25T16:47:52.501Z,95451.78
2023-04-25T16:50:20.718Z,95453.16
2023-04-25T16:52:51.133Z,95454.25
2023-04-25T16:55:19.730Z,95456.91
2023-04-25T16:57:47.873Z,95455.81
2023-04-25T17:00:18.271Z,95462.69
2023-04-25T17:02:47.306Z,95458.16
2023-04-25T17:05:15.974Z,95463.44
2023-04-25T17:07:44.087Z,95466.34
2023-04-25T17:10:14.026Z,95475.63
2023-04-25T17:12:42.368Z,95468.94
2023-04-25T17:15:11.630Z,95483.50
2023-04-25T17:17:39.695Z,95488.28
2023-04-25T17:20:09.994Z,95478.16
2023-04-25T17:22:38.698Z,95484.28
2023-04-25T17:25:08.196Z,95489.28
2023-04-25T17:27:37.758Z,95483.69
2023-04-25T17:30:07.202Z,95487.66
2023-04-25T17:32:35.655Z,95496.69
2023-04-25T17:35:04.165Z,95487.34
2023-04-25T17:37:32.761Z,95490.25
2023-04-25T17:40:00.817Z,95491.78
2023-04-25T17:42:29.260Z,95491.78
2023-04-25T17:44:58.737Z,95502.16
2023-04-25T17:47:26.929Z,95500.00
2023-04-25T17:49:56.576Z,95507.97
2023-04-25T17:52:25.759Z,95506.34
2023-04-25T17:54:53.883Z,95506.03
2023-04-25T17:57:24.381Z,95508.66
2023-04-25T17:59:52.664Z,95514.72
2023-04-25T18:02:22.710Z,95518.31
2023-04-25T18:04:51.519Z,95518.22
2023-04-25T18:07:19.692Z,95513.94
2023-04-25T18:09:47.845Z,95517.63
2023-04-25T18:12:16.788Z,95517.59
2023-04-25T18:14:45.906Z,95523.13
2023-04-25T18:17:14.642Z,95529.38
2023-04-25T18:19:44.849Z,95529.03
2023-04-25T18:22:13.224Z,95539.75
2023-04-25T18:24:41.336Z,95538.00
2023-04-25T18:27:10.194Z,95535.44
2023-04-25T18:29:38.606Z,95551.50
2023-04-25T18:32:07.376Z,95544.97
2023-04-25T18:34:35.595Z,95543.56
2023-04-25T18:37:05.335Z,95553.38
2023-04-25T18:39:33.434Z,95559.56
2023-04-25T18:42:06.472Z,95564.94
2023-04-25T18:44:39.748Z,95559.50
2023-04-25T18:47:08.438Z,95562.78
2023-04-25T18:49:37.573Z,95578.03
2023-04-25T18:52:08.664Z,95573.69
2023-04-25T18:54:37.094Z,95575.13
2023-04-25T18:57:06.318Z,95580.81
2023-04-25T18:59:34.850Z,95582.22
2023-04-25T19:02:05.352Z,95589.97
2023-04-25T19:04:34.139Z,95588.97
2023-04-25T19:07:02.660Z,95590.16
2023-04-25T19:09:32.571Z,95591.78
2023-04-25T19:12:02.531Z,95596.88
2023-04-25T19:14:32.313Z,95602.28
2023-04-25T19:17:00.728Z,95599.19
2023-04-25T19:19:29.279Z,95600.34
2023-04-25T19:21:57.398Z,95597.69
2023-04-25T19:24:25.610Z,95612.31
2023-04-25T19:26:55.932Z,95609.09
2023-04-25T19:29:24.131Z,95610.81
2023-04-25T19:31:52.256Z,95606.91
2023-04-25T19:34:20.497Z,95606.00
2023-04-25T19:36:48.947Z,95614.38
2023-04-25T19:39:17.455Z,95615.31
2023-04-25T19:41:46.619Z,95614.72
2023-04-25T19:44:16.212Z,95626.44
2023-04-25T19:46:46.574Z,95627.91
2023-04-25T19:49:14.822Z,95622.84
2023-04-25T19:51:43.562Z,95625.94
2023-04-25T19:54:11.695Z,95624.22
2023-04-25T19:56:39.817Z,95632.56
2023-04-25T19:59:07.961Z,95625.34
2023-04-25T20:01:38.512Z,95639.59
2023-04-25T20:04:06.816Z,95634.31
2023-04-25T20:06:35.698Z,95635.22
2023-04-25T20:09:04.011Z,95633.22
2023-04-25T20:11:32.331Z,95640.56
2023-04-25T20:14:00.708Z,95636.31
2023-04-25T20:16:28.866Z,95635.75
2023-04-25T20:18:58.887Z,95641.91
2023-04-25T20:21:27.435Z,95642.22
2023-04-25T20:23:55.490Z,95645.19
2023-04-25T20:26:25.873Z,95647.13
2023-04-25T20:28:54.166Z,95648.78
2023-04-25T20:31:22.448Z,95645.22
2023-04-25T20:33:50.876Z,95636.94
2023-04-25T20:36:20.646Z,95645.75
2023-04-25T20:38:48.773Z,95639.75
2023-04-25T20:41:16.981Z,95642.00
2023-04-25T20:43:46.064Z,95648.53
2023-04-25T20:46:14.220Z,95643.72
2023-04-25T20:48:42.849Z,95645.97
2023-04-25T20:51:11.966Z,95648.81
2023-04-25T20:53:41.485Z,95651.66
2023-04-25T20:56:10.911Z,95647.19
2023-04-25T20:58:38.985Z,95650.88
2023-04-25T21:01:08.219Z,95659.38
2023-04-25T21:03:36.792Z,95655.94
2023-04-25T21:06:05.233Z,95648.00
2023-04-25T21:08:33.286Z,95654.47
2023-04-25T21:11:02.722Z,95654.00
2023-04-25T21:13:30.845Z,95647.50
2023-04-25T21:15:59.333Z,95650.72
2023-04-25T21:18:27.747Z,95641.31
2023-04-25T21:20:55.801Z,95653.88
2023-04-25T21:23:23.961Z,95653.66
2023-04-25T21:25:54.049Z,95657.69
2023-04-25T21:28:25.093Z,95658.63
2023-04-25T21:30:53.278Z,95658.09
2023-04-25T21:33:21.367Z,95657.44
2023-04-25T21:35:49.443Z,95662.06
2023-04-25T21:38:17.542Z,95660.34
2023-04-25T21:40:45.950Z,95661.53
2023-04-25T21:43:14.397Z,95658.56
2023-04-25T21:46:06.364Z,95655.13
2023-04-25T21:48:31.979Z,95658.94
2023-04-25T21:51:00.041Z,95661.69
2023-04-25T21:53:28.142Z,95660.00
2023-04-25T21:55:56.709Z,95659.91
2023-04-25T21:58:27.497Z,95670.03
2023-04-25T22:00:57.806Z,95668.53
2023-04-25T22:03:26.267Z,95674.78
2023-04-25T22:05:54.540Z,95680.41
2023-04-25T22:08:23.204Z,95677.31
2023-04-25T22:10:51.272Z,95681.47
2023-04-25T22:13:20.324Z,95689.75
2023-04-25T22:15:48.871Z,95683.22
2023-04-25T22:18:19.773Z,95694.06
2023-04-25T22:20:48.194Z,95694.16
2023-04-25T22:23:17.098Z,95700.97
2023-04-25T22:25:45.228Z,95705.09
2023-04-25T22:28:13.346Z,95704.44
2023-04-25T22:30:41.489Z,95700.63
2023-04-25T22:33:09.673Z,95703.97
2023-04-25T22:35:40.316Z,95706.16
2023-04-25T22:38:08.663Z,95708.16
2023-04-25T22:40:36.853Z,95713.88
2023-04-25T22:43:05.348Z,95704.13
2023-04-25T22:45:34.474Z,95710.31
2023-04-25T22:48:02.586Z,95714.13
2023-04-25T22:50:31.110Z,95711.03
2023-04-25T22:53:00.714Z,95703.91
2023-04-25T22:55:28.824Z,95704.22
2023-04-25T22:57:56.930Z,95709.50
2023-04-25T23:00:26.317Z,95704.44
2023-04-25T23:02:55.096Z,95711.84
2023-04-25T23:05:24.526Z,95703.19
2023-04-25T23:07:52.708Z,95708.25
2023-04-25T23:10:22.503Z,95707.22
2023-04-25T23:12:50.585Z,95705.81
2023-04-25T23:15:19.803Z,95713.75
2023-04-25T23:17:48.347Z,95717.22
2023-04-25T23:20:16.637Z,95710.09
2023-04-25T23:22:44.691Z,95713.53
2023-04-25T23:25:13.050Z,95721.25
2023-04-25T23:27:43.143Z,95714.72
2023-04-25T23:30:11.771Z,95711.47
2023-04-25T23:32:40.345Z,95708.25
2023-04-25T23:35:09.069Z,95715.16
2023-04-25T23:37:37.380Z,95720.91
2023-04-25T23:40:08.596Z,95718.47
2023-04-25T23:42:36.756Z,95720.91
2023-04-25T23:45:08.617Z,95725.75
2023-04-25T23:47:37.560Z,95724.72
2023-04-25T23:50:06.519Z,95715.97
2023-04-25T23:52:34.593Z,95725.16
2023-04-25T23:55:05.428Z,95721.69
2023-04-25T23:57:33.574Z,95720.91
